Time;durP1;ratioP1;P1;durP2;ratioP2;P2;SDS_P1;SDS_P2;PMS_P1;PMS_P2;Temp;Humidity;BMP_temperature;BMP_pressure;BME280_temperature;BME280_humidity;BME280_pressure;Samples;Min_cycle;Max_cycle;Signal;HPM_P1;HPM_P2
2022/01/06 00:01:44;;;;;;;31.50;21.00;;;;;;;4.73;90.60;97879.71;109168;1277;138253;-55
2022/01/06 00:04:12;;;;;;;29.80;19.30;;;;;;;4.70;90.54;97884.91;109232;1277;22486;-56
2022/01/06 00:06:42;;;;;;;39.90;23.00;;;;;;;4.65;90.36;97886.06;109236;1277;22460;-55
2022/01/06 00:09:14;;;;;;;43.40;27.30;;;;;;;4.62;90.78;97891.08;109099;1277;138093;-55
2022/01/06 00:11:42;;;;;;;40.20;20.60;;;;;;;4.59;90.36;97893.81;109259;1277;22471;-55
2022/01/06 00:17:04;;;;;;;32.00;17.80;;;;;;;4.55;90.68;97899.54;109238;1277;22459;-55
2022/01/06 00:25:05;;;;;;;20.80;12.30;;;;;;;4.40;91.31;97907.30;109182;1277;138622;-55
2022/01/06 00:27:34;;;;;;;19.80;11.80;;;;;;;4.34;91.30;97911.67;109226;1277;22226;-55
2022/01/06 00:30:01;;;;;;;18.40;11.20;;;;;;;4.28;91.15;97910.17;109289;1277;22451;-55
2022/01/06 00:32:30;;;;;;;19.20;12.10;;;;;;;4.25;91.09;97900.17;109128;1277;22629;-56
2022/01/06 00:34:57;;;;;;;16.50;11.70;;;;;;;4.23;91.24;97900.30;108990;1277;139897;-55
2022/01/06 00:37:25;;;;;;;17.40;11.70;;;;;;;4.15;91.34;97901.87;109295;1277;22439;-55
2022/01/06 00:39:53;;;;;;;16.00;10.70;;;;;;;4.09;91.44;97919.75;109091;1277;138662;-56
2022/01/06 00:42:21;;;;;;;20.80;11.50;;;;;;;4.07;91.59;97921.99;109214;1277;22446;-55
2022/01/06 00:44:49;;;;;;;17.00;11.10;;;;;;;4.05;91.52;97922.58;109092;1277;139340;-55
2022/01/06 00:47:20;;;;;;;16.60;10.60;;;;;;;4.02;91.97;97924.34;109266;1275;22447;-55
2022/01/06 00:49:48;;;;;;;14.20;9.60;;;;;;;3.99;91.95;97924.73;109214;1277;22467;-55
2022/01/06 00:52:16;;;;;;;16.80;10.30;;;;;;;3.97;91.76;97931.71;109085;1277;139937;-55
2022/01/06 00:54:44;;;;;;;16.70;11.10;;;;;;;3.96;92.30;97932.23;109230;1277;22438;-55
2022/01/06 00:57:12;;;;;;;17.30;10.80;;;;;;;3.97;92.07;97932.46;109084;1277;138130;-56
2022/01/06 00:59:40;;;;;;;16.20;11.50;;;;;;;3.95;92.41;97932.77;109013;1277;230557;-55
2022/01/06 01:02:59;;;;;;;20.40;13.50;;;;;;;3.97;92.16;97937.96;101693;1309;545215;-55
2022/01/06 01:05:28;;;;;;;20.00;11.70;;;;;;;3.95;92.35;97934.43;103915;1287;22691;-55
2022/01/06 01:07:56;;;;;;;18.90;12.30;;;;;;;3.93;92.17;97934.48;103858;1287;25641;-54
2022/01/06 01:10:23;;;;;;;17.80;12.50;;;;;;;3.88;92.21;97944.29;103768;1288;137874;-54
2022/01/06 01:12:51;;;;;;;20.90;12.80;;;;;;;3.85;92.47;97940.91;103846;1286;23017;-55
2022/01/06 01:15:20;;;;;;;19.40;11.90;;;;;;;3.81;92.57;97946.53;108055;1286;23450;-55
2022/01/06 01:17:49;;;;;;;22.30;10.20;;;;;;;3.80;92.76;97953.68;108280;1285;151389;-55
2022/01/06 01:20:17;;;;;;;18.10;10.30;;;;;;;3.78;92.46;97953.76;108390;1285;22570;-55
2022/01/06 01:22:45;;;;;;;15.10;10.20;;;;;;;3.77;92.48;97949.91;108412;1285;22461;-55
2022/01/06 01:25:14;;;;;;;14.60;10.10;;;;;;;3.78;92.57;97944.59;108233;1285;139277;-55
2022/01/06 01:27:43;;;;;;;9.30;7.60;;;;;;;3.78;92.70;97944.81;107990;1285;138863;-55
2022/01/06 01:30:14;;;;;;;9.70;6.10;;;;;;;3.79;92.85;97948.92;108236;1286;23415;-55
2022/01/06 01:32:49;;;;;;;7.70;5.70;;;;;;;3.79;92.72;97941.44;108294;1285;23277;-55
2022/01/06 01:35:17;;;;;;;7.00;5.00;;;;;;;3.83;92.84;97941.27;108163;1284;137145;-55
2022/01/06 01:37:47;;;;;;;7.10;4.30;;;;;;;3.87;93.04;97944.92;108202;1286;22496;-55
2022/01/06 01:40:15;;;;;;;9.00;4.70;;;;;;;3.89;92.67;97939.98;108163;1284;138408;-55
2022/01/06 01:42:43;;;;;;;7.60;4.80;;;;;;;3.92;93.05;97933.60;108269;1284;22425;-55
2022/01/06 01:45:11;;;;;;;6.10;4.70;;;;;;;3.97;92.82;97928.80;108136;1286;138926;-55
2022/01/06 01:47:43;;;;;;;6.00;4.30;;;;;;;4.00;93.03;97923.67;108284;1285;24828;-55
2022/01/06 01:50:15;;;;;;;8.00;4.70;;;;;;;4.03;92.93;97921.02;108289;1285;22459;-55
2022/01/06 01:52:45;;;;;;;7.70;4.40;;;;;;;4.05;92.82;97913.51;108154;1285;138379;-56
2022/01/06 01:55:15;;;;;;;6.30;4.40;;;;;;;4.06;92.65;97918.58;108219;1286;23321;-55
2022/01/06 01:57:43;;;;;;;6.30;4.60;;;;;;;4.07;92.94;97923.94;108179;1286;137832;-56
2022/01/06 02:00:11;;;;;;;8.20;5.00;;;;;;;4.10;92.74;97945.32;108379;1284;22582;-56
2022/01/06 02:02:40;;;;;;;7.90;5.60;;;;;;;4.16;93.00;97949.80;108348;1284;22504;-56
2022/01/06 02:05:09;;;;;;;6.70;5.00;;;;;;;4.19;92.67;97942.86;108034;1284;141033;-56
2022/01/06 02:07:38;;;;;;;8.40;5.60;;;;;;;4.24;92.67;97938.05;108409;1284;24021;-56
2022/01/06 02:10:20;;;;;;;13.30;7.10;;;;;;;4.26;92.79;97923.25;107876;1284;138067;-55
2022/01/06 02:12:50;;;;;;;9.40;6.10;;;;;;;4.28;92.73;97915.52;108315;1284;22483;-56
2022/01/06 02:15:18;;;;;;;7.90;5.90;;;;;;;4.30;92.58;97908.96;108357;1284;22460;-55
2022/01/06 02:17:46;;;;;;;14.20;7.30;;;;;;;4.31;92.69;97925.08;108199;1284;138533;-55
2022/01/06 02:20:15;;;;;;;9.40;5.90;;;;;;;4.30;92.40;97936.66;108340;1284;22436;-55
2022/01/06 02:22:44;;;;;;;12.20;6.60;;;;;;;4.30;92.57;97943.20;108244;1284;137979;-55
2022/01/06 02:25:17;;;;;;;10.50;6.70;;;;;;;4.33;92.61;97948.23;108320;1284;22501;-56
2022/01/06 02:27:47;;;;;;;11.80;8.40;;;;;;;4.33;92.35;97957.65;108279;1284;22456;-56
2022/01/06 02:30:15;;;;;;;10.30;7.10;;;;;;;4.32;92.08;97963.05;108236;1284;137585;-56
2022/01/06 02:32:43;;;;;;;9.90;7.20;;;;;;;4.31;92.33;97979.27;108327;1285;22470;-56
2022/01/06 02:35:13;;;;;;;10.60;6.80;;;;;;;4.29;92.19;97981.67;108141;1284;137396;-56
2022/01/06 02:37:41;;;;;;;9.20;6.00;;;;;;;4.29;91.93;97983.40;108375;1284;23463;-56
2022/01/06 02:40:16;;;;;;;7.90;5.60;;;;;;;4.28;92.24;97980.69;109074;1277;23652;-56
2022/01/06 02:42:48;;;;;;;7.80;4.50;;;;;;;4.27;91.95;97978.48;108912;1277;137598;-57
2022/01/06 02:45:16;;;;;;;6.90;5.10;;;;;;;4.26;91.87;97983.97;108866;1277;23355;-55
2022/01/06 02:47:46;;;;;;;11.30;4.40;;;;;;;4.26;91.83;97991.84;104561;1279;138130;-57
2022/01/06 02:50:15;;;;;;;5.70;4.10;;;;;;;4.25;91.62;97999.64;104580;1278;25409;-57
2022/01/06 02:52:43;;;;;;;6.80;4.90;;;;;;;4.24;91.72;98004.52;108924;1277;138291;-54
2022/01/06 02:55:14;;;;;;;4.80;4.00;;;;;;;4.20;91.92;98014.73;109069;1277;22425;-54
2022/01/06 02:57:43;;;;;;;6.50;3.90;;;;;;;4.18;91.95;98014.23;109076;1277;22504;-54
2022/01/06 03:00:13;;;;;;;6.60;3.90;;;;;;;4.16;91.95;98015.41;108944;1277;138459;-54
2022/01/06 03:02:42;;;;;;;5.30;3.30;;;;;;;4.16;91.46;98021.61;109065;1277;22481;-54
2022/01/06 03:05:11;;;;;;;5.70;3.40;;;;;;;4.16;91.93;98023.27;109070;1277;22555;-55
2022/01/06 03:07:39;;;;;;;4.80;3.30;;;;;;;4.16;91.61;98027.96;108746;1277;137769;-57
2022/01/06 03:10:12;;;;;;;4.80;3.10;;;;;;;4.15;91.63;98034.00;109048;1277;22442;-55
2022/01/06 03:12:43;;;;;;;13.00;4.50;;;;;;;4.14;91.55;98025.15;109055;1278;22554;-55
2022/01/06 03:15:19;;;;;;;7.60;3.10;;;;;;;4.15;91.91;98023.10;108963;1277;138357;-60
2022/01/06 03:17:48;;;;;;;4.80;3.20;;;;;;;4.16;91.51;98023.23;104686;1279;24269;-59
2022/01/06 03:20:17;;;;;;;5.00;3.10;;;;;;;4.16;91.49;98023.23;108933;1277;137517;-60
2022/01/06 03:22:45;;;;;;;5.30;2.90;;;;;;;4.17;91.54;98038.38;109084;1277;23257;-60
2022/01/06 03:25:13;;;;;;;3.50;2.70;;;;;;;4.19;91.59;98040.32;108889;1277;139010;-60
2022/01/06 03:27:41;;;;;;;4.90;3.90;;;;;;;4.22;91.39;98036.42;108995;1278;22480;-61
2022/01/06 03:30:11;;;;;;;6.90;4.50;;;;;;;4.25;91.40;98033.23;109079;1277;22626;-60
2022/01/06 03:32:39;;;;;;;6.10;3.60;;;;;;;4.27;91.19;98029.10;108943;1277;138371;-60
2022/01/06 03:35:08;;;;;;;4.70;4.00;;;;;;;4.29;91.19;98022.39;109132;1276;23549;-60
2022/01/06 03:37:36;;;;;;;6.30;3.30;;;;;;;4.31;91.26;98021.50;109059;1277;138816;-60
2022/01/06 03:40:04;;;;;;;4.40;3.40;;;;;;;4.32;90.90;98026.03;109144;1276;23120;-61
2022/01/06 03:42:34;;;;;;;4.70;2.90;;;;;;;4.33;90.93;98025.88;109080;1276;22509;-60
2022/01/06 03:45:03;;;;;;;5.10;3.60;;;;;;;4.33;90.75;98023.76;109050;1276;137749;-60
2022/01/06 03:47:33;;;;;;;4.50;3.00;;;;;;;4.35;90.91;98025.71;109083;1276;22528;-60
2022/01/06 03:50:00;;;;;;;4.40;3.40;;;;;;;4.35;90.60;98030.84;109025;1276;138464;-60
2022/01/06 03:52:30;;;;;;;6.40;4.20;;;;;;;4.34;90.72;98041.61;109103;1276;22456;-60
2022/01/06 03:54:58;;;;;;;7.70;4.50;;;;;;;4.35;90.41;98040.71;108973;1276;139348;-60
2022/01/06 03:57:26;;;;;;;7.40;4.70;;;;;;;4.35;90.73;98039.25;109113;1276;22462;-60
2022/01/06 03:59:54;;;;;;;4.60;3.90;;;;;;;4.36;90.57;98033.23;109149;1276;23219;-61
2022/01/06 04:02:22;;;;;;;8.30;4.50;;;;;;;4.36;90.13;98041.10;109006;1276;137564;-60
2022/01/06 04:04:51;;;;;;;6.20;4.80;;;;;;;4.37;90.25;98040.58;109140;1276;22537;-60
2022/01/06 04:07:18;;;;;;;6.00;4.50;;;;;;;4.37;90.15;98041.70;108851;1279;138096;-59
2022/01/06 04:09:46;;;;;;;7.50;5.30;;;;;;;4.38;90.14;98039.39;109087;1276;22409;-60
2022/01/06 04:12:14;;;;;;;8.50;4.10;;;;;;;4.39;90.12;98037.62;109146;1276;23669;-60
2022/01/06 04:14:42;;;;;;;7.30;4.90;;;;;;;4.39;90.31;98036.02;109048;1277;137564;-60
2022/01/06 04:17:25;;;;;;;7.90;4.30;;;;;;;4.39;90.10;98042.11;109099;1276;22453;-60
2022/01/06 04:19:52;;;;;;;6.70;4.40;;;;;;;4.39;89.73;98049.33;109030;1276;137717;-60
2022/01/06 04:22:20;;;;;;;7.20;5.00;;;;;;;4.39;90.08;98053.70;109148;1276;22408;-60
2022/01/06 04:24:48;;;;;;;8.60;5.10;;;;;;;4.39;90.15;98064.81;109152;1277;22462;-60
2022/01/06 04:27:17;;;;;;;11.50;6.90;;;;;;;4.39;89.92;98074.36;109024;1276;137246;-60
2022/01/06 04:29:45;;;;;;;13.50;8.70;;;;;;;4.39;89.75;98069.35;109138;1276;22513;-60
2022/01/06 04:32:13;;;;;;;16.10;10.30;;;;;;;4.38;89.59;98067.77;109037;1276;137632;-60
2022/01/06 04:34:41;;;;;;;16.10;10.40;;;;;;;4.36;89.68;98067.08;109116;1277;22496;-60
2022/01/06 04:37:09;;;;;;;10.90;7.80;;;;;;;4.33;89.29;98071.23;109019;1276;138442;-60
2022/01/06 04:39:38;;;;;;;12.00;7.10;;;;;;;4.31;89.12;98074.39;108546;1277;22711;-60
2022/01/06 04:42:06;;;;;;;10.00;6.50;;;;;;;4.29;89.37;98071.45;104744;1278;22543;-60
2022/01/06 04:44:34;;;;;;;7.90;5.90;;;;;;;4.28;89.25;98076.19;108970;1276;137740;-60
2022/01/06 04:47:03;;;;;;;7.50;5.90;;;;;;;4.27;89.43;98075.03;109146;1276;23230;-60
2022/01/06 04:49:32;;;;;;;7.50;5.50;;;;;;;4.26;89.25;98069.91;109021;1276;138506;-60
2022/01/06 04:52:01;;;;;;;9.60;6.50;;;;;;;4.25;89.48;98067.52;109116;1276;22597;-60
2022/01/06 04:54:29;;;;;;;9.10;5.90;;;;;;;4.24;89.46;98068.27;109114;1276;23214;-61
2022/01/06 04:56:57;;;;;;;10.70;6.70;;;;;;;4.22;89.20;98076.11;109010;1276;137868;-61
2022/01/06 04:59:25;;;;;;;9.40;5.90;;;;;;;4.20;89.18;98076.41;109094;1276;22557;-60
2022/01/06 05:01:53;;;;;;;9.70;7.00;;;;;;;4.20;88.95;98081.64;109024;1277;138108;-62
2022/01/06 05:04:21;;;;;;;11.90;7.50;;;;;;;4.19;89.10;98081.83;109089;1276;22593;-60
2022/01/06 05:06:51;;;;;;;10.70;7.90;;;;;;;4.19;89.19;98083.88;109095;1277;22571;-60
2022/01/06 05:09:19;;;;;;;11.60;7.50;;;;;;;4.18;89.27;98086.47;109047;1277;137706;-61
2022/01/06 05:11:46;;;;;;;12.10;7.80;;;;;;;4.19;89.07;98093.27;109052;1277;23342;-61
2022/01/06 05:14:15;;;;;;;8.40;7.00;;;;;;;4.17;88.71;98092.13;108975;1277;138643;-60
2022/01/06 05:16:48;;;;;;;11.90;7.70;;;;;;;4.15;88.88;98098.95;109097;1276;24017;-61
2022/01/06 05:19:16;;;;;;;11.20;7.90;;;;;;;4.14;89.10;98102.00;109000;1276;138891;-61
2022/01/06 05:21:44;;;;;;;17.70;10.90;;;;;;;4.13;89.00;98099.85;109119;1276;23240;-61
2022/01/06 05:24:14;;;;;;;11.40;7.70;;;;;;;4.15;89.02;98105.95;109138;1277;22446;-61
2022/01/06 05:26:42;;;;;;;18.40;10.30;;;;;;;4.14;88.88;98116.51;109007;1277;138376;-60
2022/01/06 05:29:11;;;;;;;23.20;11.90;;;;;;;4.14;89.13;98118.77;109131;1277;22587;-61
2022/01/06 05:31:39;;;;;;;12.70;8.10;;;;;;;4.15;88.74;98121.48;109029;1276;138250;-61
2022/01/06 05:34:07;;;;;;;10.60;7.40;;;;;;;4.15;88.43;98119.80;109060;1276;22537;-61
2022/01/06 05:36:38;;;;;;;9.40;6.90;;;;;;;4.14;88.54;98125.13;109123;1276;22493;-62
2022/01/06 05:39:06;;;;;;;26.70;11.30;;;;;;;4.12;88.47;98128.83;109009;1276;138148;-61
2022/01/06 05:41:33;;;;;;;14.40;9.30;;;;;;;4.11;88.31;98129.89;109047;1277;22447;-61
2022/01/06 05:44:01;;;;;;;14.80;8.80;;;;;;;4.11;88.08;98132.59;108954;1277;138368;-60
2022/01/06 05:46:29;;;;;;;10.30;7.10;;;;;;;4.10;88.00;98135.16;109149;1276;22407;-61
2022/01/06 05:48:57;;;;;;;10.50;6.80;;;;;;;4.08;88.18;98140.09;109001;1276;137957;-60
2022/01/06 05:51:25;;;;;;;10.50;6.80;;;;;;;4.07;88.15;98146.33;109106;1276;22441;-60
2022/01/06 05:53:54;;;;;;;9.90;7.10;;;;;;;4.07;88.11;98144.05;109165;1276;22538;-60
2022/01/06 05:56:21;;;;;;;8.50;6.50;;;;;;;4.07;87.86;98149.50;108991;1276;137861;-62
2022/01/06 05:58:49;;;;;;;11.20;6.30;;;;;;;4.07;88.20;98155.64;109152;1276;22537;-62
2022/01/06 06:01:17;;;;;;;8.60;6.70;;;;;;;4.05;87.98;98154.55;108990;1277;139106;-62
2022/01/06 06:03:45;;;;;;;10.20;6.90;;;;;;;4.06;88.25;98162.95;109088;1276;22445;-62
2022/01/06 06:06:13;;;;;;;9.00;6.50;;;;;;;4.06;88.10;98171.04;109127;1276;22563;-62
2022/01/06 06:08:41;;;;;;;9.00;6.90;;;;;;;4.07;88.05;98176.55;108982;1276;137977;-62
2022/01/06 06:11:09;;;;;;;7.60;5.70;;;;;;;4.09;87.99;98174.60;109122;1276;22456;-62
2022/01/06 06:13:37;;;;;;;8.70;6.50;;;;;;;4.12;87.99;98179.92;109028;1277;138086;-62
2022/01/06 06:16:05;;;;;;;9.90;5.90;;;;;;;4.14;87.70;98187.61;109155;1277;22436;-63
2022/01/06 06:18:33;;;;;;;14.00;6.10;;;;;;;4.15;87.68;98196.21;109063;1276;22410;-62
2022/01/06 06:21:01;;;;;;;10.30;7.50;;;;;;;4.18;87.93;98200.50;108933;1276;138657;-62
2022/01/06 06:23:29;;;;;;;11.20;7.00;;;;;;;4.20;87.63;98197.23;109080;1276;22463;-63
2022/01/06 06:25:57;;;;;;;8.80;6.60;;;;;;;4.20;87.25;98195.34;108962;1276;137837;-62
2022/01/06 06:28:24;;;;;;;7.80;5.60;;;;;;;4.20;87.11;98201.44;109069;1276;22526;-63
2022/01/06 06:30:52;;;;;;;5.80;4.80;;;;;;;4.19;87.03;98202.49;109097;1276;23309;-63
2022/01/06 06:33:20;;;;;;;8.10;5.20;;;;;;;4.16;86.77;98206.46;108928;1276;138023;-63
2022/01/06 06:35:48;;;;;;;9.60;5.70;;;;;;;4.15;86.65;98214.05;107889;1276;22557;-61
2022/01/06 06:38:17;;;;;;;9.30;7.10;;;;;;;4.15;86.70;98214.59;104622;1276;138731;-61
2022/01/06 06:40:45;;;;;;;13.80;8.60;;;;;;;4.14;86.54;98218.84;104672;1277;25342;-60
2022/01/06 06:43:13;;;;;;;10.90;7.00;;;;;;;4.15;86.60;98217.70;104515;1279;139687;-59
2022/01/06 06:45:41;;;;;;;11.40;7.30;;;;;;;4.15;86.42;98217.17;109089;1277;23207;-60
2022/01/06 06:48:10;;;;;;;10.50;7.00;;;;;;;4.14;86.33;98214.24;109059;1277;22497;-59
2022/01/06 06:50:37;;;;;;;12.20;9.00;;;;;;;4.14;85.84;98222.75;108962;1276;139401;-59
2022/01/06 06:53:07;;;;;;;7.40;5.60;;;;;;;4.12;86.02;98224.98;109116;1276;22479;-60
2022/01/06 06:55:35;;;;;;;11.50;6.70;;;;;;;4.11;85.83;98230.16;109006;1277;139419;-60
2022/01/06 06:58:04;;;;;;;7.30;5.60;;;;;;;4.11;85.74;98225.52;109145;1278;22467;-61
2022/01/06 07:00:32;;;;;;;11.70;7.60;;;;;;;4.11;85.87;98234.79;109108;1277;23186;-59
2022/01/06 07:03:00;;;;;;;9.80;6.70;;;;;;;4.12;85.60;98243.60;109005;1276;138353;-59
2022/01/06 07:05:29;;;;;;;8.90;5.70;;;;;;;4.13;85.78;98248.30;109125;1276;22507;-60
2022/01/06 07:07:57;;;;;;;9.10;6.40;;;;;;;4.14;85.08;98250.10;109000;1276;138094;-60
2022/01/06 07:10:25;;;;;;;10.00;6.90;;;;;;;4.14;85.08;98256.41;109134;1277;22464;-60
2022/01/06 07:12:54;;;;;;;9.60;6.50;;;;;;;4.14;85.08;98263.25;109102;1277;23411;-59
2022/01/06 07:15:22;;;;;;;7.80;5.20;;;;;;;4.14;84.95;98266.81;108951;1276;138714;-60
2022/01/06 07:17:51;;;;;;;8.40;4.10;;;;;;;4.13;84.41;98269.59;109111;1276;23376;-60
2022/01/06 07:20:19;;;;;;;6.90;4.90;;;;;;;4.11;83.83;98271.77;109044;1277;138157;-60
2022/01/06 07:22:47;;;;;;;7.80;4.90;;;;;;;4.10;84.15;98265.39;109098;1276;23388;-60
2022/01/06 07:25:15;;;;;;;6.30;4.50;;;;;;;4.09;83.64;98264.08;108933;1277;139511;-60
2022/01/06 07:27:43;;;;;;;6.30;4.30;;;;;;;4.08;83.19;98259.96;109134;1277;22456;-60
2022/01/06 07:30:12;;;;;;;8.60;4.20;;;;;;;4.06;83.00;98259.34;109149;1276;22477;-59
2022/01/06 07:32:50;;;;;;;6.80;4.10;;;;;;;4.05;82.86;98248.98;109003;1278;138727;-60
2022/01/06 07:35:21;;;;;;;7.90;4.20;;;;;;;4.01;82.42;98251.41;108911;1277;24354;-60
2022/01/06 07:37:50;;;;;;;6.30;4.10;;;;;;;3.97;82.67;98253.98;107388;1276;138111;-59
2022/01/06 07:40:19;;;;;;;8.50;4.20;;;;;;;3.96;82.93;98258.82;109079;1277;22520;-59
2022/01/06 07:42:47;;;;;;;6.90;4.20;;;;;;;3.94;82.69;98265.20;108840;1277;138792;-59
2022/01/06 07:45:16;;;;;;;7.10;3.90;;;;;;;3.95;82.76;98265.11;109074;1277;24235;-59
2022/01/06 07:47:55;;;;;;;8.00;3.70;;;;;;;3.93;82.18;98268.73;109078;1276;23274;-60
2022/01/06 07:50:29;;;;;;;10.80;3.90;;;;;;;3.85;82.03;98282.80;108975;1276;139174;-59
2022/01/06 07:52:57;;;;;;;8.00;3.40;;;;;;;3.77;81.63;98292.95;109041;1277;22551;-59
2022/01/06 07:55:25;;;;;;;5.20;3.10;;;;;;;3.69;81.28;98289.79;108997;1277;137579;-60
2022/01/06 07:57:54;;;;;;;7.60;3.40;;;;;;;3.63;81.24;98297.43;109105;1276;22443;-60
2022/01/06 08:00:40;;;;;;;5.60;3.30;;;;;;;3.58;81.14;98295.82;109035;1277;137986;-60
2022/01/06 08:03:08;;;;;;;6.00;3.40;;;;;;;3.55;81.01;98303.41;109115;1277;22477;-60
2022/01/06 08:05:36;;;;;;;6.10;2.90;;;;;;;3.52;80.47;98301.58;108383;1277;24252;-60
2022/01/06 08:08:12;;;;;;;6.30;2.60;;;;;;;3.49;79.12;98299.30;104691;1279;139127;-60
2022/01/06 08:10:41;;;;;;;5.90;3.30;;;;;;;3.41;78.77;98305.74;109054;1276;23645;-60
2022/01/06 08:13:09;;;;;;;5.30;3.80;;;;;;;3.36;78.72;98311.60;109369;1273;22460;-60
2022/01/06 08:15:38;;;;;;;6.20;3.60;;;;;;;3.33;78.41;98312.63;109477;1273;22493;-60
2022/01/06 08:18:06;;;;;;;8.80;4.80;;;;;;;3.30;78.47;98311.41;109452;1274;22484;-60
2022/01/06 08:20:36;;;;;;;4.50;2.70;;;;;;;3.31;78.50;98310.89;109013;1274;138646;-60
2022/01/06 08:23:04;;;;;;;4.90;3.00;;;;;;;3.32;78.22;98304.48;109362;1273;23853;-60
2022/01/06 08:25:33;;;;;;;6.40;2.60;;;;;;;3.30;78.16;98308.52;109395;1273;22599;-60
2022/01/06 08:28:01;;;;;;;6.30;2.90;;;;;;;3.28;77.97;98315.39;109300;1273;137952;-61
2022/01/06 08:30:32;;;;;;;7.40;3.20;;;;;;;3.23;77.79;98324.55;109332;1273;22579;-60
2022/01/06 08:33:00;;;;;;;4.80;2.90;;;;;;;3.17;77.96;98331.88;109293;1272;137918;-61
2022/01/06 08:35:28;;;;;;;8.20;3.90;;;;;;;3.13;78.23;98334.66;109427;1274;22472;-61
2022/01/06 08:37:56;;;;;;;6.90;4.30;;;;;;;3.10;78.46;98344.45;109406;1274;22433;-60
2022/01/06 08:40:25;;;;;;;5.50;3.00;;;;;;;3.08;77.95;98346.27;109297;1273;138232;-61
2022/01/06 08:42:53;;;;;;;8.80;3.70;;;;;;;3.02;77.74;98353.11;109402;1273;22487;-61
2022/01/06 08:45:21;;;;;;;7.90;3.90;;;;;;;2.98;78.26;98360.40;109197;1273;138298;-61
2022/01/06 08:47:48;;;;;;;8.70;4.10;;;;;;;2.98;78.58;98361.14;109389;1274;22430;-60
2022/01/06 08:50:16;;;;;;;11.20;4.70;;;;;;;2.99;78.86;98365.01;109448;1274;22613;-61
2022/01/06 08:52:45;;;;;;;9.70;5.40;;;;;;;3.00;78.65;98360.28;108858;1273;138172;-60
2022/01/06 08:55:13;;;;;;;8.70;5.20;;;;;;;3.00;78.69;98357.55;109372;1273;22473;-60
2022/01/06 08:57:41;;;;;;;14.00;5.20;;;;;;;3.00;78.97;98351.63;109296;1273;138465;-61
2022/01/06 09:00:14;;;;;;;15.20;7.10;;;;;;;3.03;79.04;98357.48;109406;1273;22558;-60
2022/01/06 09:02:42;;;;;;;14.80;7.30;;;;;;;3.02;78.74;98358.08;109369;1273;22603;-61
2022/01/06 09:05:10;;;;;;;14.80;6.40;;;;;;;3.00;78.18;98360.77;109299;1273;138317;-60
2022/01/06 09:07:38;;;;;;;13.80;6.70;;;;;;;2.98;77.80;98368.67;109428;1273;22482;-60
2022/01/06 09:10:07;;;;;;;14.60;6.20;;;;;;;2.95;77.89;98368.23;109290;1273;137934;-60
2022/01/06 09:12:35;;;;;;;20.40;8.60;;;;;;;2.93;77.56;98368.46;109411;1273;22455;-62
2022/01/06 09:15:05;;;;;;;14.60;7.10;;;;;;;2.95;77.43;98373.24;109366;1273;22639;-61
2022/01/06 09:17:36;;;;;;;22.90;11.00;;;;;;;2.96;77.36;98378.31;109288;1274;138897;-61
2022/01/06 09:20:05;;;;;;;31.80;14.20;;;;;;;2.96;77.19;98378.98;109358;1273;23331;-61
2022/01/06 09:22:42;;;;;;;31.90;13.50;;;;;;;2.98;76.77;98381.59;109251;1273;137881;-61
2022/01/06 09:25:11;;;;;;;16.00;8.10;;;;;;;2.99;76.93;98383.45;109403;1274;22449;-61
2022/01/06 09:27:39;;;;;;;11.00;6.80;;;;;;;3.00;76.14;98386.37;109411;1274;22432;-61
2022/01/06 09:30:07;;;;;;;24.90;12.60;;;;;;;2.96;76.05;98386.39;109239;1273;138403;-61
2022/01/06 09:32:37;;;;;;;20.40;10.10;;;;;;;2.93;76.19;98387.55;109405;1273;23412;-61
2022/01/06 09:35:05;;;;;;;24.90;11.60;;;;;;;2.95;76.47;98380.28;108983;1273;137988;-62
2022/01/06 09:37:35;;;;;;;32.80;17.80;;;;;;;2.98;76.45;98391.33;109331;1273;22609;-61
2022/01/06 09:40:04;;;;;;;16.40;9.20;;;;;;;3.00;76.37;98390.73;109221;1274;138861;-61
2022/01/06 09:42:31;;;;;;;11.10;5.80;;;;;;;3.02;75.88;98387.44;109240;1274;22512;-61
2022/01/06 09:45:00;;;;;;;14.30;9.60;;;;;;;3.00;75.44;98377.71;109381;1273;22461;-61
2022/01/06 09:47:29;;;;;;;22.40;13.60;;;;;;;2.98;75.63;98382.25;104968;1276;138567;-60
2022/01/06 09:50:08;;;;;;;10.10;5.80;;;;;;;2.98;75.38;98402.41;109359;1273;23271;-61
2022/01/06 09:52:36;;;;;;;15.60;8.90;;;;;;;2.96;75.23;98408.08;109305;1273;137846;-61
2022/01/06 09:55:05;;;;;;;10.70;6.10;;;;;;;2.98;75.38;98411.40;109352;1274;22588;-61
2022/01/06 09:57:33;;;;;;;12.00;7.80;;;;;;;3.00;75.36;98392.73;109265;1273;140725;-62
2022/01/06 10:00:01;;;;;;;10.60;7.60;;;;;;;3.02;75.22;98382.29;109408;1273;23293;-61
2022/01/06 10:02:39;;;;;;;19.40;13.00;;;;;;;3.04;75.20;98384.45;109325;1274;22454;-61
2022/01/06 10:05:08;;;;;;;16.60;9.90;;;;;;;3.05;75.59;98389.00;109177;1274;138347;-61
2022/01/06 10:07:39;;;;;;;10.80;5.90;;;;;;;3.07;75.49;98389.75;109335;1273;22456;-61
2022/01/06 10:10:27;;;;;;;12.30;5.00;;;;;;;3.08;75.09;98392.63;109241;1273;138002;-62
2022/01/06 10:12:56;;;;;;;10.50;4.90;;;;;;;3.08;75.05;98398.39;109393;1274;22440;-61
2022/01/06 10:15:25;;;;;;;9.60;4.00;;;;;;;3.09;75.10;98388.33;109441;1273;22454;-62
2022/01/06 10:17:55;;;;;;;5.80;4.20;;;;;;;3.09;74.71;98377.02;109199;1274;137891;-63
2022/01/06 10:20:26;;;;;;;7.60;4.20;;;;;;;3.09;74.95;98377.19;109479;1274;22457;-62
2022/01/06 10:22:56;;;;;;;9.20;4.40;;;;;;;3.09;74.88;98376.71;108964;1273;139245;-63
2022/01/06 10:25:28;;;;;;;7.20;4.10;;;;;;;3.11;74.89;98370.14;109347;1273;22456;-62
2022/01/06 10:28:19;;;;;;;10.00;4.10;;;;;;;3.16;75.04;98371.11;109361;1274;138135;-63
2022/01/06 10:30:48;;;;;;;9.60;3.90;;;;;;;3.19;74.93;98374.77;109360;1274;23119;-62
2022/01/06 10:33:21;;;;;;;8.10;4.60;;;;;;;3.22;74.55;98367.27;109274;1274;137961;-62
2022/01/06 10:35:49;;;;;;;11.10;5.40;;;;;;;3.22;73.77;98364.70;109429;1274;22553;-62
2022/01/06 10:38:27;;;;;;;10.70;4.40;;;;;;;3.21;73.71;98361.06;109322;1274;22431;-62
2022/01/06 10:41:08;;;;;;;5.60;3.50;;;;;;;3.21;73.72;98350.46;109294;1274;137809;-62
2022/01/06 10:43:36;;;;;;;8.90;3.90;;;;;;;3.24;73.32;98355.27;109390;1274;24350;-62
2022/01/06 10:46:05;;;;;;;7.40;3.80;;;;;;;3.27;73.38;98365.23;107632;1274;136875;-63
2022/01/06 10:48:33;;;;;;;8.80;4.70;;;;;;;3.30;73.38;98363.09;109216;1275;22464;-62
2022/01/06 10:51:01;;;;;;;6.80;4.70;;;;;;;3.34;73.55;98353.46;109174;1273;137390;-61
2022/01/06 10:53:30;;;;;;;12.00;4.90;;;;;;;3.38;73.52;98360.27;109415;1274;22447;-61
2022/01/06 10:55:58;;;;;;;6.80;4.20;;;;;;;3.43;73.60;98364.91;109429;1273;23180;-61
2022/01/06 10:58:25;;;;;;;6.40;3.50;;;;;;;3.50;73.38;98366.80;109303;1273;137286;-60
2022/01/06 11:00:58;;;;;;;10.90;4.40;;;;;;;3.55;72.59;98367.06;109463;1273;22554;-61
2022/01/06 11:03:29;;;;;;;9.70;3.50;;;;;;;3.57;72.55;98365.61;109342;1273;138017;-61
2022/01/06 11:05:58;;;;;;;9.20;4.20;;;;;;;3.60;71.89;98355.10;109451;1273;22517;-60
2022/01/06 11:08:31;;;;;;;11.20;5.70;;;;;;;3.62;71.53;98355.98;109466;1273;22633;-61
2022/01/06 11:13:50;;;;;;;11.70;4.40;;;;;;;3.67;71.22;98373.00;109423;1273;22545;-62
2022/01/06 11:16:36;;;;;;;8.50;3.90;;;;;;;3.68;70.71;98372.63;109346;1273;137324;-61
2022/01/06 11:19:05;;;;;;;18.10;9.20;;;;;;;3.67;70.34;98374.61;109439;1273;22484;-61
2022/01/06 11:21:39;;;;;;;19.50;10.60;;;;;;;3.68;70.32;98373.73;109321;1273;137696;-61
2022/01/06 11:24:10;;;;;;;17.00;9.20;;;;;;;3.68;70.08;98376.25;109386;1273;23243;-60
2022/01/06 11:26:38;;;;;;;12.10;5.60;;;;;;;3.68;69.97;98372.31;109400;1274;22483;-60
2022/01/06 11:29:06;;;;;;;9.90;4.70;;;;;;;3.68;69.83;98366.15;109350;1273;137482;-61
2022/01/06 11:31:35;;;;;;;9.30;6.20;;;;;;;3.67;69.95;98367.00;109416;1273;22410;-61
2022/01/06 11:34:17;;;;;;;9.90;5.60;;;;;;;3.66;69.93;98379.00;109339;1274;136843;-61
2022/01/06 11:36:47;;;;;;;8.40;4.20;;;;;;;3.65;70.18;98388.67;109428;1274;22477;-61
2022/01/06 11:39:23;;;;;;;9.90;4.40;;;;;;;3.64;69.96;98396.48;109297;1273;138401;-64
2022/01/06 11:41:52;;;;;;;10.20;5.00;;;;;;;3.63;70.39;98401.09;109416;1273;23687;-62
2022/01/06 11:44:25;;;;;;;8.50;4.50;;;;;;;3.63;70.33;98396.39;109453;1274;22710;-62
2022/01/06 11:46:56;;;;;;;10.00;4.60;;;;;;;3.61;70.44;98395.59;109308;1273;138188;-63